Time;durP1;ratioP1;P1;durP2;ratioP2;P2;SDS_P1;SDS_P2;PMS_P1;PMS_P2;Temp;Humidity;BMP_temperature;BMP_pressure;BME280_temperature;BME280_humidity;BME280_pressure;Samples;Min_cycle;Max_cycle;Signal;HPM_P1;HPM_P2
2022/03/20 00:00:53;;;;;;;12.75;7.20;;;;;;;2.97;33.29;102598.47;5093305;28;20051;-80
2022/03/20 00:03:24;;;;;;;12.50;7.15;;;;;;;2.89;33.40;102608.94;5094844;28;20051;-79
2022/03/20 00:05:54;;;;;;;15.50;6.80;;;;;;;2.88;33.53;102618.59;5094359;28;20071;-80
2022/03/20 00:08:23;;;;;;;14.95;7.45;;;;;;;2.93;33.33;102612.50;5094064;28;20036;-79
2022/03/20 00:10:54;;;;;;;13.90;7.20;;;;;;;3.03;33.13;102604.69;5076007;28;20083;-76
2022/03/20 00:13:24;;;;;;;11.82;6.28;;;;;;;3.10;33.21;102610.91;5094345;28;20119;-76
2022/03/20 00:15:54;;;;;;;14.18;7.22;;;;;;;3.03;33.40;102602.03;5093284;28;20040;-76
2022/03/20 00:18:26;;;;;;;13.90;7.20;;;;;;;3.02;33.41;102602.03;5093845;28;20051;-76
2022/03/20 00:20:57;;;;;;;13.77;7.43;;;;;;;2.90;33.81;102608.09;5093918;28;20082;-76
2022/03/20 00:23:26;;;;;;;14.10;7.60;;;;;;;2.99;33.49;102612.53;5093854;28;20482;-76
2022/03/20 00:25:55;;;;;;;15.40;7.53;;;;;;;2.95;33.62;102616.03;5093382;28;20040;-76
2022/03/20 00:28:26;;;;;;;14.55;7.53;;;;;;;2.98;33.78;102618.69;5093761;28;20113;-75
2022/03/20 00:30:56;;;;;;;14.68;7.47;;;;;;;2.88;34.21;102609.81;5075692;28;20051;-74
2022/03/20 00:33:25;;;;;;;13.13;6.93;;;;;;;2.82;34.52;102610.66;5093786;28;20050;-74
2022/03/20 00:35:55;;;;;;;16.58;7.65;;;;;;;2.81;34.64;102611.53;5093128;28;20047;-74
2022/03/20 00:38:24;;;;;;;13.70;7.63;;;;;;;2.75;34.62;102619.38;5093473;28;20158;-73
2022/03/20 00:40:52;;;;;;;13.75;7.00;;;;;;;2.70;34.93;102610.53;5093058;28;20136;-74
2022/03/20 00:43:20;;;;;;;14.27;7.50;;;;;;;2.71;35.07;102603.53;5093669;28;20111;-74
2022/03/20 00:45:49;;;;;;;14.40;7.00;;;;;;;2.62;35.37;102604.31;5093392;28;20202;-76
2022/03/20 00:48:22;;;;;;;15.40;7.78;;;;;;;2.60;35.24;102613.94;5093458;28;20326;-76
2022/03/20 00:50:51;;;;;;;15.27;7.72;;;;;;;2.44;35.63;102604.13;5093089;28;20048;-75
2022/03/20 00:53:20;;;;;;;11.93;6.95;;;;;;;2.47;35.81;102609.41;5093175;28;20079;-75
2022/03/20 00:55:49;;;;;;;15.13;7.68;;;;;;;2.42;36.09;102613.75;5092756;28;20040;-75
2022/03/20 00:58:17;;;;;;;15.48;7.57;;;;;;;2.41;36.00;102617.25;5093361;28;20040;-74
2022/03/20 01:00:45;;;;;;;14.70;7.28;;;;;;;2.37;36.23;102618.09;5093096;28;20540;-75
2022/03/20 01:03:16;;;;;;;13.18;7.13;;;;;;;2.30;36.58;102615.38;5093266;28;20040;-75
2022/03/20 01:05:45;;;;;;;14.95;7.90;;;;;;;2.32;36.72;102618.03;5093023;28;20126;-75
2022/03/20 01:08:13;;;;;;;14.07;7.55;;;;;;;2.16;36.47;102616.97;5093046;28;20091;-75
2022/03/20 01:10:43;;;;;;;13.55;7.53;;;;;;;2.25;36.60;102616.19;5092990;28;20060;-75
2022/03/20 01:13:11;;;;;;;16.55;7.20;;;;;;;2.19;36.72;102617.00;5092834;28;20040;-75
2022/03/20 01:15:39;;;;;;;16.25;7.32;;;;;;;2.15;36.77;102619.59;5092276;28;20056;-76
2022/03/20 01:18:08;;;;;;;13.43;7.68;;;;;;;2.12;37.22;102615.16;5092695;28;20055;-76
2022/03/20 01:20:36;;;;;;;13.07;7.43;;;;;;;2.03;37.37;102622.06;5092754;28;20542;-77
2022/03/20 01:23:05;;;;;;;12.90;7.40;;;;;;;1.98;37.56;102625.53;5092829;28;20047;-75
2022/03/20 01:25:33;;;;;;;13.48;7.20;;;;;;;2.00;37.33;102629.03;5093103;28;20036;-76
2022/03/20 01:28:02;;;;;;;14.20;7.55;;;;;;;1.92;37.70;102625.44;5093049;28;20109;-74
2022/03/20 01:30:31;;;;;;;15.20;7.57;;;;;;;1.90;38.18;102635.06;5093104;28;20466;-74
2022/03/20 01:32:59;;;;;;;16.38;7.97;;;;;;;1.81;38.32;102634.06;5092705;28;20048;-78
2022/03/20 01:35:27;;;;;;;17.75;7.32;;;;;;;1.86;38.05;102637.66;5092976;28;20147;-78
2022/03/20 01:37:56;;;;;;;13.88;7.30;;;;;;;1.71;38.13;102639.19;5092203;28;20067;-78
2022/03/20 01:40:25;;;;;;;13.85;7.60;;;;;;;1.77;38.49;102645.41;5092651;28;20063;-74
2022/03/20 01:42:53;;;;;;;13.38;7.82;;;;;;;1.63;38.72;102655.72;5092334;28;20177;-74
2022/03/20 01:45:24;;;;;;;15.98;6.90;;;;;;;1.57;38.72;102651.28;5092639;28;20097;-76
2022/03/20 01:47:53;;;;;;;15.32;7.80;;;;;;;1.65;38.76;102654.91;5092265;28;20051;-77
2022/03/20 01:50:23;;;;;;;15.95;7.45;;;;;;;1.64;38.74;102647.88;5092421;28;20043;-76
2022/03/20 01:52:53;;;;;;;15.80;7.88;;;;;;;1.50;39.04;102659.91;5074180;28;20054;-77
2022/03/20 01:55:24;;;;;;;14.27;7.82;;;;;;;1.41;39.32;102659.78;5092358;28;20055;-77
2022/03/20 01:57:54;;;;;;;12.52;7.22;;;;;;;1.28;40.12;102657.81;5092111;28;20044;-76
2022/03/20 02:00:26;;;;;;;16.15;7.80;;;;;;;1.37;39.71;102655.34;5092848;28;20406;-76
2022/03/20 02:02:55;;;;;;;14.88;7.50;;;;;;;1.32;39.91;102659.63;5092510;28;20097;-76
2022/03/20 02:05:24;;;;;;;12.13;7.28;;;;;;;1.26;40.08;102660.44;5092439;28;20097;-77
2022/03/20 02:07:52;;;;;;;14.65;7.90;;;;;;;1.39;40.02;102665.00;5092127;28;20503;-77
2022/03/20 02:10:21;;;;;;;11.35;6.88;;;;;;;1.36;40.37;102661.47;5092316;28;20048;-76
2022/03/20 02:12:50;;;;;;;13.95;7.85;;;;;;;1.36;39.78;102657.09;5092037;28;20036;-76
2022/03/20 02:15:18;;;;;;;15.05;8.45;;;;;;;1.35;40.02;102657.03;5092041;28;20440;-75
2022/03/20 02:17:48;;;;;;;15.13;7.35;;;;;;;1.29;40.60;102659.59;5092091;28;20056;-76
2022/03/20 02:20:22;;;;;;;15.80;8.35;;;;;;;1.14;40.82;102655.81;5092113;28;20040;-75
2022/03/20 02:22:52;;;;;;;12.80;7.18;;;;;;;1.21;40.81;102655.94;5091356;28;20060;-75
2022/03/20 02:25:20;;;;;;;14.38;7.28;;;;;;;1.23;40.90;102651.59;5091747;28;20055;-74
2022/03/20 02:27:48;;;;;;;14.48;7.97;;;;;;;1.13;41.41;102651.44;5091541;28;20060;-74
2022/03/20 02:30:18;;;;;;;16.58;8.00;;;;;;;1.14;41.62;102647.06;5091940;28;20047;-74
2022/03/20 02:32:49;;;;;;;16.00;8.15;;;;;;;1.10;41.61;102655.75;5091678;28;20094;-74
2022/03/20 02:35:19;;;;;;;16.60;7.85;;;;;;;1.10;41.77;102661.91;5091669;28;20443;-74
2022/03/20 02:37:49;;;;;;;13.90;8.50;;;;;;;1.17;41.52;102659.41;5091711;28;20118;-74
2022/03/20 02:40:21;;;;;;;15.30;7.88;;;;;;;0.94;42.22;102667.75;5091892;28;20037;-74
2022/03/20 02:42:54;;;;;;;13.93;7.82;;;;;;;0.85;42.62;102662.31;5091419;28;20401;-73
2022/03/20 02:45:27;;;;;;;13.37;8.13;;;;;;;0.83;42.40;102669.31;5091802;28;20432;-73
2022/03/20 02:47:56;;;;;;;17.45;8.15;;;;;;;0.84;42.54;102669.31;5091267;28;20101;-74
2022/03/20 02:50:27;;;;;;;16.90;7.85;;;;;;;0.81;42.56;102671.03;5091305;28;20143;-74
2022/03/20 02:52:58;;;;;;;17.35;7.53;;;;;;;0.73;42.90;102672.63;5091243;28;20054;-75
2022/03/20 02:55:29;;;;;;;15.82;7.75;;;;;;;0.66;42.95;102668.09;5091908;28;20392;-75
2022/03/20 02:58:01;;;;;;;14.82;8.23;;;;;;;0.51;43.53;102681.84;5091359;28;20454;-77
2022/03/20 03:00:33;;;;;;;14.43;8.13;;;;;;;0.51;43.98;102687.97;5091867;28;20048;-77
2022/03/20 03:03:04;;;;;;;17.17;8.47;;;;;;;0.65;43.62;102689.97;5091635;28;20382;-79
2022/03/20 03:05:34;;;;;;;15.95;8.40;;;;;;;0.57;43.78;102690.69;5091870;28;20181;-79
2022/03/20 03:10:57;;;;;;;15.13;8.18;;;;;;;0.61;43.96;102696.03;5091717;28;20075;-73
2022/03/20 03:13:28;;;;;;;13.70;8.00;;;;;;;0.54;44.07;102703.78;5091059;28;20052;-74
2022/03/20 03:15:58;;;;;;;14.27;8.15;;;;;;;0.62;43.94;102706.56;5091082;28;20135;-81
2022/03/20 03:18:27;;;;;;;18.73;8.68;;;;;;;0.43;44.49;102710.56;5092087;28;20402;-81
2022/03/20 03:20:56;;;;;;;15.85;8.32;;;;;;;0.45;44.71;102711.47;5090841;28;20040;-81
2022/03/20 03:23:25;;;;;;;17.40;8.48;;;;;;;0.50;44.56;102716.81;5091640;28;20044;-80
2022/03/20 03:25:56;;;;;;;17.05;8.25;;;;;;;0.30;45.34;102719.03;5091329;28;20149;-81
2022/03/20 03:28:32;;;;;;;15.73;8.63;;;;;;;0.35;45.32;102717.38;5091842;28;20048;-81
2022/03/20 03:31:01;;;;;;;15.32;8.45;;;;;;;0.32;45.43;102722.59;5091178;28;20088;-79
2022/03/20 03:33:29;;;;;;;14.23;7.95;;;;;;;0.34;45.69;102726.13;5091075;28;20098;-79
2022/03/20 03:35:57;;;;;;;15.57;9.00;;;;;;;0.20;45.71;102727.56;5091965;28;20040;-79
2022/03/20 03:38:30;;;;;;;17.13;8.65;;;;;;;0.06;46.25;102724.63;5095170;28;20071;-79
2022/03/20 03:41:00;;;;;;;15.65;8.57;;;;;;;0.08;46.55;102740.41;5094365;28;20058;-79
2022/03/20 03:43:28;;;;;;;18.20;8.52;;;;;;;-0.09;47.26;102746.19;5094655;28;20044;-82
2022/03/20 03:45:57;;;;;;;17.05;9.10;;;;;;;-0.13;47.17;102728.56;5094776;28;20108;-82
2022/03/20 03:48:25;;;;;;;15.50;8.40;;;;;;;-0.02;47.12;102742.81;5095266;28;20327;-80
2022/03/20 03:50:54;;;;;;;16.83;9.00;;;;;;;-0.07;47.25;102731.34;5094503;28;20075;-84
2022/03/20 03:53:22;;;;;;;16.77;9.38;;;;;;;0.14;47.19;102735.31;5095317;28;20123;-83
2022/03/20 03:55:51;;;;;;;18.00;9.90;;;;;;;0.10;47.03;102746.59;5094259;28;20048;-83
2022/03/20 03:58:20;;;;;;;17.02;9.10;;;;;;;0.23;46.64;102749.50;5094492;28;20498;-81
2022/03/20 04:00:49;;;;;;;17.58;9.10;;;;;;;0.23;46.70;102753.88;5093983;28;20477;-80
2022/03/20 04:03:18;;;;;;;18.40;9.38;;;;;;;0.17;47.07;102756.34;5094548;28;20050;-80
2022/03/20 04:05:47;;;;;;;18.55;9.70;;;;;;;0.14;47.00;102749.31;5094447;28;20071;-81
2022/03/20 04:08:16;;;;;;;19.75;10.02;;;;;;;0.20;47.03;102753.81;5094119;28;20043;-80
2022/03/20 04:10:45;;;;;;;18.50;10.13;;;;;;;0.20;47.45;102756.44;5094350;28;20405;-80
2022/03/20 04:13:13;;;;;;;24.27;10.90;;;;;;;-0.03;48.08;102762.03;5094262;28;20032;-80
2022/03/20 04:15:43;;;;;;;18.70;10.40;;;;;;;-0.08;48.35;102763.69;5076345;28;20052;-81
2022/03/20 04:18:12;;;;;;;17.85;10.32;;;;;;;-0.03;48.51;102771.66;5094596;28;20458;-81
2022/03/20 04:20:41;;;;;;;19.35;9.05;;;;;;;0.08;47.95;102764.91;5094369;28;20040;-80
2022/03/20 04:25:55;;;;;;;19.20;9.85;;;;;;;-0.15;48.64;102777.50;5093935;28;20119;-79
2022/03/20 04:28:25;;;;;;;19.50;10.02;;;;;;;-0.18;48.98;102780.06;5093850;28;20138;-80
2022/03/20 04:30:55;;;;;;;18.60;10.15;;;;;;;-0.23;49.15;102783.41;5093992;28;20040;-81
2022/03/20 04:33:25;;;;;;;17.23;9.80;;;;;;;-0.17;49.02;102780.94;5093841;28;20044;-80
2022/03/20 04:35:53;;;;;;;20.23;10.40;;;;;;;-0.23;49.46;102779.06;5093539;28;20061;-79
2022/03/20 04:38:22;;;;;;;19.77;11.30;;;;;;;-0.34;49.97;102786.66;5093986;28;20124;-79
2022/03/20 04:40:51;;;;;;;18.52;9.95;;;;;;;-0.49;50.16;102795.88;5093569;28;20211;-79
2022/03/20 04:43:19;;;;;;;20.45;10.30;;;;;;;-0.52;50.29;102795.78;5093446;28;20405;-79
2022/03/20 04:45:47;;;;;;;21.40;10.75;;;;;;;-0.43;50.37;102794.28;5093755;28;20426;-83
2022/03/20 04:59:20;;;;;;;19.23;11.25;;;;;;;-0.51;50.48;102814.19;5093647;28;20044;-79
2022/03/20 05:01:49;;;;;;;21.45;11.13;;;;;;;-0.44;51.03;102810.00;5074736;28;20497;-84
2022/03/20 05:04:19;;;;;;;20.75;11.35;;;;;;;-0.52;51.21;102811.53;5093367;28;20048;-79
2022/03/20 05:06:47;;;;;;;21.35;10.93;;;;;;;-0.43;51.04;102822.25;5093366;28;20036;-79
2022/03/20 05:14:57;;;;;;;20.58;11.00;;;;;;;-0.19;50.44;102828.13;5092528;28;20092;-79
2022/03/20 05:17:26;;;;;;;21.42;10.43;;;;;;;-0.20;50.53;102830.69;5092745;28;20151;-81
2022/03/20 05:19:55;;;;;;;19.83;10.32;;;;;;;-0.21;50.52;102831.53;5092734;28;20036;-81
2022/03/20 05:22:24;;;;;;;17.45;10.07;;;;;;;-0.29;51.22;102841.84;5092917;28;20055;-79
2022/03/20 05:24:52;;;;;;;19.80;10.45;;;;;;;-0.26;51.12;102843.69;5092661;28;20449;-80
2022/03/20 05:27:20;;;;;;;19.83;10.75;;;;;;;-0.09;50.80;102845.00;5092993;28;20119;-80
2022/03/20 05:29:49;;;;;;;20.27;10.93;;;;;;;0.16;50.09;102843.84;5093187;28;20520;-80
2022/03/20 05:32:17;;;;;;;19.75;11.23;;;;;;;0.16;49.95;102847.34;5092740;28;20052;-80
2022/03/20 05:34:46;;;;;;;18.00;9.88;;;;;;;0.07;50.21;102851.47;5092884;28;20044;-79
2022/03/20 05:37:15;;;;;;;18.75;10.50;;;;;;;0.39;49.03;102837.41;5092572;28;20046;-81
2022/03/20 05:39:45;;;;;;;17.65;10.10;;;;;;;0.37;49.16;102844.31;5093334;28;20044;-82
2022/03/20 05:42:14;;;;;;;19.48;10.70;;;;;;;0.45;48.98;102842.78;5092803;28;20048;-82
2022/03/20 05:44:44;;;;;;;16.83;10.25;;;;;;;0.73;48.94;102859.16;5093415;28;20047;-82
2022/03/20 05:47:12;;;;;;;18.83;10.82;;;;;;;0.56;48.72;102858.75;5092467;28;20052;-82
2022/03/20 05:49:41;;;;;;;19.90;11.15;;;;;;;0.55;48.96;102864.88;5092519;28;20044;-82
2022/03/20 05:52:10;;;;;;;20.40;10.63;;;;;;;0.91;48.30;102867.41;5092290;28;20048;-82
2022/03/20 05:54:39;;;;;;;19.60;10.77;;;;;;;0.94;48.26;102870.09;5093048;28;20044;-81
2022/03/20 05:59:55;;;;;;;18.13;10.77;;;;;;;1.19;47.91;102883.78;5092111;28;20052;-82
2022/03/20 06:02:24;;;;;;;20.52;10.55;;;;;;;1.27;47.51;102880.44;5092566;28;20044;-82
2022/03/20 06:04:53;;;;;;;19.23;10.90;;;;;;;1.41;47.02;102885.97;5092851;28;20040;-82
2022/03/20 06:07:21;;;;;;;19.45;11.27;;;;;;;1.53;46.71;102885.28;5092614;28;20040;-82
2022/03/20 06:09:51;;;;;;;21.90;11.02;;;;;;;1.50;46.84;102899.28;5092295;28;20063;-82
2022/03/20 06:12:21;;;;;;;16.42;10.35;;;;;;;1.48;46.94;102893.13;5092475;28;20456;-83
2022/03/20 06:14:49;;;;;;;18.50;10.60;;;;;;;1.58;46.41;102905.59;5092289;28;20392;-83
2022/03/20 06:17:17;;;;;;;17.60;9.90;;;;;;;1.54;46.76;102898.47;5092098;28;20466;-83
2022/03/20 06:19:49;;;;;;;18.98;9.77;;;;;;;1.53;46.70;102901.09;5092295;28;20102;-84
2022/03/20 06:22:17;;;;;;;18.73;10.02;;;;;;;1.64;46.35;102905.72;5091751;28;20036;-84
2022/03/20 06:24:45;;;;;;;18.08;10.07;;;;;;;1.75;46.19;102897.13;5092002;28;20079;-83
2022/03/20 06:27:15;;;;;;;20.92;10.77;;;;;;;1.98;45.88;102922.09;5091928;28;20382;-81
2022/03/20 06:29:43;;;;;;;18.38;10.32;;;;;;;2.25;44.73;102917.31;5092456;28;20048;-79
2022/03/20 06:32:11;;;;;;;19.45;9.88;;;;;;;2.28;44.62;102922.63;5091801;28;20047;-79
2022/03/20 06:34:40;;;;;;;17.23;10.18;;;;;;;2.51;44.28;102924.72;5092021;28;20555;-83
2022/03/20 06:37:08;;;;;;;17.15;9.88;;;;;;;2.62;44.23;102917.00;5091555;28;20409;-83
2022/03/20 06:39:37;;;;;;;16.52;9.82;;;;;;;2.85;43.38;102924.38;5091765;28;20481;-82
2022/03/20 06:42:07;;;;;;;17.05;9.93;;;;;;;2.79;43.28;102929.53;5073522;28;20105;-83
2022/03/20 06:44:37;;;;;;;16.35;10.05;;;;;;;2.92;43.13;102927.09;5091904;28;20044;-82
2022/03/20 06:47:06;;;;;;;18.92;9.75;;;;;;;2.96;42.91;102935.06;5091450;28;20075;-81
2022/03/20 06:49:34;;;;;;;17.50;9.88;;;;;;;3.07;42.57;102932.56;5091892;28;20123;-80
2022/03/20 06:52:02;;;;;;;15.88;9.70;;;;;;;3.14;42.53;102935.31;5091518;28;20094;-84
2022/03/20 06:54:30;;;;;;;16.40;9.90;;;;;;;3.33;42.16;102933.81;5091717;28;20094;-83
2022/03/20 06:56:59;;;;;;;18.10;10.13;;;;;;;3.17;42.37;102935.34;5091899;28;20054;-89
2022/03/20 06:59:27;;;;;;;16.92;9.60;;;;;;;3.46;42.18;102940.09;5091590;28;20052;-83
2022/03/20 07:01:58;;;;;;;16.75;9.90;;;;;;;3.57;41.80;102934.94;5091484;28;20050;-79
2022/03/20 07:04:26;;;;;;;17.20;8.90;;;;;;;3.59;41.63;102939.41;5091468;28;20085;-79
2022/03/20 07:06:54;;;;;;;17.05;9.55;;;;;;;3.55;41.45;102936.69;5091554;28;20048;-84
2022/03/20 07:09:23;;;;;;;18.95;9.55;;;;;;;3.68;41.63;102943.91;5091183;28;20045;-77
2022/03/20 07:11:51;;;;;;;19.27;9.38;;;;;;;3.82;41.21;102950.19;5095793;28;20378;-77
2022/03/20 07:14:19;;;;;;;18.15;9.98;;;;;;;3.96;41.05;102951.25;5095431;28;20122;-78
2022/03/20 07:16:48;;;;;;;16.17;9.43;;;;;;;3.96;41.01;102959.16;5095383;28;20487;-76
2022/03/20 07:19:19;;;;;;;17.50;9.43;;;;;;;4.09;40.74;102946.94;5095435;28;20401;-76
2022/03/20 07:21:48;;;;;;;15.75;9.50;;;;;;;4.16;39.93;102953.19;5095198;28;20047;-76
2022/03/20 07:24:16;;;;;;;15.48;9.65;;;;;;;4.21;40.11;102954.09;5095045;28;20552;-79
2022/03/20 07:29:31;;;;;;;15.38;8.77;;;;;;;4.41;39.33;102956.91;5095649;28;20054;-79
2022/03/20 07:32:02;;;;;;;13.68;8.45;;;;;;;4.59;38.88;102950.00;5094909;28;20047;-78
2022/03/20 07:34:34;;;;;;;14.25;8.43;;;;;;;4.80;38.50;102953.69;5095258;28;20123;-77
2022/03/20 07:37:03;;;;;;;14.40;8.05;;;;;;;5.00;38.09;102945.84;5094922;28;20066;-83
2022/03/20 07:39:32;;;;;;;14.23;8.25;;;;;;;5.35;37.16;102948.69;5094883;28;20040;-81
2022/03/20 07:42:00;;;;;;;14.52;8.75;;;;;;;5.32;36.96;102948.69;5094806;28;20063;-79
2022/03/20 07:44:31;;;;;;;17.70;8.57;;;;;;;5.29;37.45;102954.84;5094708;28;20040;-74
2022/03/20 07:47:00;;;;;;;15.23;8.73;;;;;;;5.22;37.04;102947.75;5098253;28;20588;-75
2022/03/20 07:49:28;;;;;;;16.33;8.25;;;;;;;5.23;37.21;102949.53;5097147;28;20085;-74
2022/03/20 07:51:58;;;;;;;15.95;8.50;;;;;;;5.32;36.83;102951.34;5095366;28;20067;-77
2022/03/20 07:54:27;;;;;;;15.52;8.60;;;;;;;5.24;36.97;102951.28;5094224;28;20438;-73
2022/03/20 07:56:55;;;;;;;17.33;8.95;;;;;;;5.17;37.01;102954.78;5094762;28;20105;-78
2022/03/20 07:59:24;;;;;;;14.88;8.90;;;;;;;5.16;37.02;102947.72;5094580;28;20540;-78
2022/03/20 08:01:52;;;;;;;16.60;9.23;;;;;;;5.27;36.85;102950.41;5094587;28;20454;-79
2022/03/20 08:04:22;;;;;;;14.80;8.80;;;;;;;5.31;36.90;102953.09;5094362;28;20044;-82
2022/03/20 08:06:51;;;;;;;14.98;8.90;;;;;;;5.31;36.87;102944.28;5094475;28;20032;-78
2022/03/20 08:09:21;;;;;;;12.45;7.93;;;;;;;5.41;36.68;102946.97;5094154;28;20067;-81
2022/03/20 08:11:49;;;;;;;15.27;8.02;;;;;;;5.45;36.37;102950.50;5094624;28;20032;-80
2022/03/20 08:14:17;;;;;;;14.07;8.43;;;;;;;5.52;36.41;102951.41;5093980;28;20461;-77
2022/03/20 08:16:47;;;;;;;15.23;8.85;;;;;;;5.47;36.43;102948.72;5093929;28;20067;-80
2022/03/20 08:19:16;;;;;;;14.15;7.90;;;;;;;5.69;35.90;102949.69;5094352;28;20114;-81
2022/03/20 08:21:46;;;;;;;15.90;7.70;;;;;;;5.70;35.77;102940.88;5093387;28;20044;-76
2022/03/20 08:24:15;;;;;;;14.48;8.05;;;;;;;5.77;35.57;102949.72;5094112;28;20378;-77
2022/03/20 08:26:45;;;;;;;14.18;7.88;;;;;;;5.96;34.83;102949.78;5094115;28;20055;-76
2022/03/20 08:29:14;;;;;;;14.32;7.30;;;;;;;6.00;34.89;102938.34;5093982;28;20448;-77
2022/03/20 08:31:45;;;;;;;11.32;6.95;;;;;;;6.19;33.81;102941.88;5094060;28;20119;-77
2022/03/20 08:34:15;;;;;;;11.48;7.28;;;;;;;6.27;34.08;102945.44;5076085;28;20099;-81
2022/03/20 08:36:44;;;;;;;11.80;6.68;;;;;;;6.34;33.21;102934.81;5094609;28;20126;-82
2022/03/20 08:39:12;;;;;;;11.10;6.75;;;;;;;6.31;33.85;102941.00;5094225;28;20086;-82
2022/03/20 08:41:43;;;;;;;11.30;6.82;;;;;;;6.50;33.44;102941.88;5076046;28;20048;-79
2022/03/20 08:44:13;;;;;;;12.45;7.30;;;;;;;6.64;32.80;102936.53;5093188;28;20497;-78
2022/03/20 08:46:41;;;;;;;12.45;7.00;;;;;;;6.88;32.84;102940.06;5094140;28;20127;-76
2022/03/20 08:49:12;;;;;;;12.65;7.53;;;;;;;7.04;32.69;102937.34;5093474;28;20085;-78
2022/03/20 08:51:40;;;;;;;12.15;6.88;;;;;;;7.10;32.30;102935.56;5094461;28;20123;-75
2022/03/20 08:54:11;;;;;;;11.75;6.25;;;;;;;7.17;32.10;102933.78;5076184;28;20098;-74
2022/03/20 08:56:39;;;;;;;13.48;7.15;;;;;;;7.13;32.15;102924.94;5094036;28;20050;-75
2022/03/20 08:59:10;;;;;;;11.82;6.88;;;;;;;6.79;32.37;102929.47;5093605;28;20040;-76
2022/03/20 09:01:39;;;;;;;13.38;6.95;;;;;;;6.77;32.73;102917.97;5093548;28;20046;-78
2022/03/20 09:04:10;;;;;;;11.93;6.60;;;;;;;6.70;32.31;102928.59;5093545;28;20370;-75
2022/03/20 09:06:43;;;;;;;12.05;6.72;;;;;;;6.76;32.07;102929.47;5093637;28;20047;-71
2022/03/20 09:09:13;;;;;;;11.75;6.45;;;;;;;6.67;32.37;102934.81;5093378;28;20039;-70
2022/03/20 09:11:45;;;;;;;11.33;6.47;;;;;;;6.55;32.67;102929.47;5093157;28;20044;-70
2022/03/20 09:14:13;;;;;;;12.15;6.35;;;;;;;6.66;32.85;102929.47;5093027;28;20284;-76
2022/03/20 09:19:28;;;;;;;12.38;6.75;;;;;;;6.42;33.13;102925.09;5092983;28;20116;-71
2022/03/20 09:21:57;;;;;;;12.70;6.82;;;;;;;6.50;33.31;102910.06;5092928;28;20093;-71
2022/03/20 09:24:25;;;;;;;14.45;6.65;;;;;;;6.54;33.10;102906.50;5092495;28;20134;-72
2022/03/20 09:26:54;;;;;;;10.75;7.07;;;;;;;6.60;33.74;102911.81;5092910;28;20127;-72
2022/03/20 09:29:22;;;;;;;12.07;6.80;;;;;;;6.56;32.90;102907.38;5092298;28;20079;-73
2022/03/20 09:31:52;;;;;;;10.52;6.93;;;;;;;6.63;33.14;102900.31;5092427;28;20044;-72
2022/03/20 09:34:20;;;;;;;13.82;7.63;;;;;;;6.70;33.20;102910.03;5091389;28;20477;-72
2022/03/20 09:36:49;;;;;;;10.57;6.47;;;;;;;6.86;32.73;102909.13;5092660;28;20044;-72
2022/03/20 09:39:17;;;;;;;11.85;6.43;;;;;;;6.84;32.55;102911.75;5092310;28;20040;-72
2022/03/20 09:41:48;;;;;;;11.80;6.93;;;;;;;6.89;33.03;102915.28;5092948;28;20047;-75
2022/03/20 09:44:17;;;;;;;11.60;6.57;;;;;;;6.98;32.38;102921.47;5091908;28;20131;-79
2022/03/20 09:46:47;;;;;;;11.25;6.88;;;;;;;6.85;32.79;102916.19;5092616;28;20044;-74
2022/03/20 09:49:17;;;;;;;10.90;6.40;;;;;;;6.91;32.29;102914.41;5092325;28;20432;-77
2022/03/20 09:51:45;;;;;;;13.85;7.15;;;;;;;7.06;32.56;102907.28;5092858;28;20047;-72
2022/03/20 09:54:14;;;;;;;11.38;6.93;;;;;;;7.13;32.63;102914.31;5092979;28;20067;-72
2022/03/20 09:56:43;;;;;;;12.82;7.07;;;;;;;6.83;31.98;102909.97;5092535;28;20505;-73
2022/03/20 09:59:11;;;;;;;11.60;6.97;;;;;;;6.97;32.32;102904.66;5090990;28;20040;-69
2022/03/20 10:01:40;;;;;;;12.75;7.03;;;;;;;6.83;32.38;102903.78;5089122;28;20044;-73
2022/03/20 10:04:10;;;;;;;12.80;6.80;;;;;;;6.89;32.46;102891.41;5091249;28;20094;-74
2022/03/20 10:06:42;;;;;;;13.75;7.82;;;;;;;6.96;32.16;102900.25;5090134;28;20446;-75
2022/03/20 10:09:12;;;;;;;13.30;7.30;;;;;;;7.04;31.99;102892.22;5090629;28;20064;-74
2022/03/20 10:11:47;;;;;;;12.00;7.05;;;;;;;7.02;31.62;102888.69;5090486;28;20117;-74
2022/03/20 10:14:18;;;;;;;13.55;7.45;;;;;;;7.11;32.59;102899.28;5090790;28;20142;-79
2022/03/20 10:16:50;;;;;;;12.52;7.57;;;;;;;7.19;32.01;102897.50;5090665;28;20439;-75
2022/03/20 10:19:31;;;;;;;12.77;6.80;;;;;;;7.39;31.47;102902.72;5090681;28;20087;-76
2022/03/20 10:22:05;;;;;;;14.88;7.10;;;;;;;7.47;31.42;102891.16;5090383;28;20131;-72
2022/03/20 10:24:37;;;;;;;11.68;7.30;;;;;;;7.32;31.59;102893.88;5090648;28;20047;-70
2022/03/20 10:27:13;;;;;;;11.10;6.97;;;;;;;6.92;31.69;102890.50;5090548;28;20040;-69
2022/03/20 10:29:52;;;;;;;12.57;6.97;;;;;;;6.77;32.28;102886.16;5089799;28;20036;-77
2022/03/20 10:32:22;;;;;;;13.63;7.00;;;;;;;6.94;32.17;102882.53;5090576;28;20063;-76
2022/03/20 10:34:54;;;;;;;12.40;7.15;;;;;;;7.16;31.90;102876.28;5090123;28;20055;-73
2022/03/20 10:37:45;;;;;;;10.90;6.70;;;;;;;7.29;31.70;102879.75;5090489;28;20152;-72
2022/03/20 10:40:17;;;;;;;11.32;6.70;;;;;;;7.34;31.68;102880.63;5090715;28;20118;-74
2022/03/20 10:43:08;;;;;;;11.45;6.85;;;;;;;7.15;31.75;102869.22;5090182;28;20093;-73
2022/03/20 10:45:56;;;;;;;14.23;7.10;;;;;;;7.23;31.98;102872.69;5092118;28;20134;-72
2022/03/20 10:48:35;;;;;;;13.40;7.03;;;;;;;7.20;31.84;102871.81;5094531;28;20043;-73
2022/03/20 10:51:06;;;;;;;16.48;7.57;;;;;;;7.41;31.46;102864.63;5094827;28;20078;-71
2022/03/20 10:53:56;;;;;;;14.30;7.18;;;;;;;7.47;31.10;102872.56;5094463;28;20055;-69
2022/03/20 10:56:24;;;;;;;10.45;6.82;;;;;;;7.29;31.25;102867.34;5091750;28;20126;-69
2022/03/20 10:58:52;;;;;;;13.65;7.20;;;;;;;7.36;30.93;102861.13;5094420;28;20036;-69
2022/03/20 11:01:35;;;;;;;11.05;6.95;;;;;;;7.52;30.90;102855.72;5094648;28;20044;-69
2022/03/20 11:04:06;;;;;;;13.25;6.80;;;;;;;7.37;30.84;102854.94;5094605;28;20094;-72
2022/03/20 11:06:35;;;;;;;13.35;6.70;;;;;;;7.45;30.65;102858.44;5095039;28;20040;-73
2022/03/20 11:09:07;;;;;;;11.23;6.65;;;;;;;7.43;30.55;102854.91;5094317;28;20067;-69
2022/03/20 11:11:42;;;;;;;12.23;7.00;;;;;;;7.51;30.39;102845.97;5094606;28;20048;-68
2022/03/20 11:14:18;;;;;;;10.32;6.40;;;;;;;7.57;30.37;102851.28;5094870;28;20121;-71
2022/03/20 11:16:49;;;;;;;11.23;6.57;;;;;;;7.37;30.54;102839.00;5094120;28;20060;-71
2022/03/20 11:19:23;;;;;;;12.90;6.95;;;;;;;7.40;30.94;102831.00;5094588;28;20044;-71
2022/03/20 11:21:57;;;;;;;11.20;6.85;;;;;;;7.51;30.55;102830.06;5094338;28;20055;-71
2022/03/20 11:24:29;;;;;;;16.13;7.03;;;;;;;7.86;29.92;102838.66;5094161;28;20063;-71
2022/03/20 11:27:01;;;;;;;13.52;6.88;;;;;;;7.91;29.66;102820.91;5093979;28;20048;-71
2022/03/20 11:29:32;;;;;;;10.00;5.90;;;;;;;7.97;29.16;102809.34;5094444;28;20036;-71
2022/03/20 11:32:01;;;;;;;9.82;6.30;;;;;;;8.00;29.28;102799.53;5094182;28;20060;-73
2022/03/20 11:34:31;;;;;;;9.95;6.00;;;;;;;8.01;28.62;102790.69;5094869;28;20064;-73
2022/03/20 11:37:10;;;;;;;12.38;6.20;;;;;;;7.74;28.86;102796.25;5094908;28;20040;-74
2022/03/20 11:40:11;;;;;;;9.80;5.75;;;;;;;7.81;28.91;102791.75;5095373;28;20085;-75
2022/03/20 11:42:41;;;;;;;10.27;6.00;;;;;;;7.82;28.95;102778.47;5044145;28;20056;-73
2022/03/20 11:45:17;;;;;;;12.07;6.50;;;;;;;7.93;29.05;102781.91;5077008;28;20105;-72
2022/03/20 11:47:47;;;;;;;10.27;5.85;;;;;;;7.82;29.10;102788.22;5095219;28;20087;-68
2022/03/20 11:50:22;;;;;;;8.77;5.30;;;;;;;8.01;28.34;102777.41;5095085;28;20574;-71
2022/03/20 11:52:55;;;;;;;8.93;4.85;;;;;;;8.26;27.16;102775.38;5095071;28;20090;-71
2022/03/20 11:55:34;;;;;;;11.88;6.53;;;;;;;8.50;27.44;102784.03;5094787;28;20508;-71
2022/03/20 11:58:05;;;;;;;9.02;5.50;;;;;;;8.63;27.07;102775.00;5093834;28;20051;-70
2022/03/20 12:00:35;;;;;;;10.88;5.32;;;;;;;8.63;26.79;102768.78;5094762;28;20051;-69
2022/03/20 12:03:31;;;;;;;9.90;5.32;;;;;;;8.62;26.89;102765.25;5095025;28;20044;-69
2022/03/20 12:06:45;;;;;;;9.07;5.47;;;;;;;8.87;26.38;102766.69;5094188;28;20499;-72
2022/03/20 12:09:54;;;;;;;9.77;5.40;;;;;;;9.04;26.52;102761.13;5094272;28;20044;-70